createdAt,value
2022-12-14T00:00:34.241Z,99316.28
2022-12-14T00:04:36.121Z,99303.75
2022-12-14T00:08:41.701Z,99305.97
2022-12-14T00:12:43.874Z,99299.69
2022-12-14T00:16:45.953Z,99294.38
2022-12-14T00:20:47.912Z,99288.63
2022-12-14T00:24:49.709Z,99288.53
2022-12-14T00:28:53.012Z,99281.19
2022-12-14T00:32:55.173Z,99266.34
2022-12-14T00:36:57.106Z,99276.28
2022-12-14T00:40:59.307Z,99275.25
2022-12-14T00:45:02.243Z,99281.41
2022-12-14T00:49:04.076Z,99264.59
2022-12-14T00:53:06.102Z,99271.50
2022-12-14T00:57:08.181Z,99267.09
2022-12-14T01:01:15.684Z,99277.56
2022-12-14T01:05:17.658Z,99285.63
2022-12-14T01:09:20.584Z,99280.47
2022-12-14T01:13:22.368Z,99269.88
2022-12-14T01:17:24.151Z,99257.16
2022-12-14T01:21:26.178Z,99260.50
2022-12-14T01:25:27.960Z,99254.59
2022-12-14T01:29:29.878Z,99249.34
2022-12-14T01:33:31.697Z,99249.81
2022-12-14T01:37:33.429Z,99245.75
2022-12-14T01:41:44.726Z,99228.59
2022-12-14T01:45:46.526Z,99227.34
2022-12-14T01:49:55.871Z,99238.66
2022-12-14T01:53:57.740Z,99231.31
2022-12-14T01:58:10.300Z,99232.69
2022-12-14T02:02:12.283Z,99235.97
2022-12-14T02:06:24.703Z,99236.50
2022-12-14T02:10:27.892Z,99240.41
2022-12-14T02:14:29.824Z,99236.66
2022-12-14T02:18:32.382Z,99232.34
2022-12-14T02:23:17.395Z,99244.31
2022-12-14T02:27:49.652Z,99236.97
2022-12-14T02:32:12.623Z,99227.97
2022-12-14T02:36:34.980Z,99232.66
2022-12-14T02:41:29.254Z,99226.59
2022-12-14T02:45:46.106Z,99216.19
2022-12-14T02:49:56.702Z,99223.56
2022-12-14T02:54:06.505Z,99216.28
2022-12-14T02:58:20.300Z,99214.03
2022-12-14T03:07:06.266Z,99216.53
2022-12-14T03:11:14.247Z,99212.50
2022-12-14T03:15:23.386Z,99201.69
2022-12-14T03:19:55.240Z,99192.91
2022-12-14T03:23:57.094Z,99193.25
2022-12-14T03:28:26.326Z,99176.03
2022-12-14T03:32:29.643Z,99182.44
2022-12-14T03:36:55.606Z,99166.53
2022-12-14T03:41:24.646Z,99167.03
2022-12-14T03:45:58.073Z,99168.25
2022-12-14T03:50:22.653Z,99161.81
2022-12-14T03:54:35.995Z,99169.91
2022-12-14T03:58:43.869Z,99146.16
2022-12-14T04:03:18.712Z,99141.41
2022-12-14T04:07:28.033Z,99131.19
2022-12-14T04:11:55.249Z,99129.22
2022-12-14T04:16:15.569Z,99137.88
2022-12-14T04:20:24.541Z,99130.25
2022-12-14T04:25:09.774Z,99127.00
2022-12-14T04:29:33.527Z,99108.84
2022-12-14T04:33:46.726Z,99108.38
2022-12-14T04:38:03.777Z,99107.56
2022-12-14T04:42:05.701Z,99091.28
2022-12-14T04:46:08.916Z,99100.44
2022-12-14T04:50:19.486Z,99087.28
2022-12-14T04:54:32.103Z,99083.00
2022-12-14T04:58:34.059Z,99077.94
2022-12-14T05:02:49.370Z,99070.81
2022-12-14T05:07:09.092Z,99066.31
2022-12-14T05:15:53.672Z,99038.78
2022-12-14T05:19:55.498Z,99049.59
2022-12-14T05:23:58.953Z,99044.03
2022-12-14T05:28:01.010Z,99030.38
2022-12-14T05:32:02.806Z,99040.38
2022-12-14T05:36:05.057Z,99033.91
2022-12-14T05:40:07.693Z,99025.84
2022-12-14T05:44:09.554Z,99031.25
2022-12-14T05:48:11.418Z,99021.38
2022-12-14T05:52:13.208Z,99006.16
2022-12-14T05:56:14.982Z,99000.25
2022-12-14T06:00:17.356Z,98996.16
2022-12-14T06:04:19.381Z,98987.69
2022-12-14T06:08:21.765Z,98980.06
2022-12-14T06:12:23.571Z,98979.72
2022-12-14T06:16:26.541Z,98970.72
2022-12-14T06:20:28.466Z,98972.03
2022-12-14T06:24:30.274Z,98986.19
2022-12-14T06:28:32.498Z,98985.41
2022-12-14T06:32:34.577Z,98984.53
2022-12-14T06:36:37.993Z,98974.84
2022-12-14T06:40:40.479Z,98977.88
2022-12-14T06:44:42.421Z,98966.25
2022-12-14T06:48:44.581Z,98965.34
2022-12-14T06:52:50.336Z,98966.38
2022-12-14T06:56:52.594Z,98962.84
2022-12-14T07:01:03.168Z,98951.47
2022-12-14T07:05:06.204Z,98946.38
2022-12-14T07:09:16.439Z,98947.38
2022-12-14T07:13:18.664Z,98949.94
2022-12-14T07:17:21.171Z,98949.28
2022-12-14T07:21:23.425Z,98946.22
2022-12-14T07:25:25.166Z,98943.81
2022-12-14T07:29:32.675Z,98929.75
2022-12-14T07:33:36.278Z,98920.34
2022-12-14T07:37:38.034Z,98926.84
2022-12-14T07:41:39.857Z,98926.63
2022-12-14T07:45:41.614Z,98925.53
2022-12-14T07:49:43.871Z,98930.25
2022-12-14T07:53:46.120Z,98917.13
2022-12-14T07:57:48.051Z,98903.47
2022-12-14T08:01:51.479Z,98902.13
2022-12-14T08:05:53.372Z,98881.97
2022-12-14T08:09:55.175Z,98878.06
2022-12-14T08:13:59.101Z,98881.63
2022-12-14T08:18:00.886Z,98869.69
2022-12-14T08:22:02.828Z,98871.81
2022-12-14T08:26:05.652Z,98865.00
2022-12-14T08:30:08.630Z,98851.41
2022-12-14T08:34:10.510Z,98854.00
2022-12-14T08:38:12.346Z,98849.28
2022-12-14T08:42:14.180Z,98833.41
2022-12-14T08:46:15.997Z,98848.66
2022-12-14T08:50:17.927Z,98854.22
2022-12-14T08:54:19.744Z,98830.69
2022-12-14T08:58:21.638Z,98830.69
2022-12-14T09:02:23.569Z,98827.28
2022-12-14T09:06:27.863Z,98811.31
2022-12-14T09:10:29.704Z,98805.69
2022-12-14T09:14:31.609Z,98811.16
2022-12-14T09:18:34.737Z,98805.38
2022-12-14T09:22:36.618Z,98790.03
2022-12-14T09:26:38.405Z,98790.28
2022-12-14T09:30:40.239Z,98771.44
2022-12-14T09:34:42.083Z,98762.00
2022-12-14T09:38:51.048Z,98764.56
2022-12-14T09:42:58.081Z,98757.47
2022-12-14T09:47:32.105Z,98738.69
2022-12-14T09:51:36.613Z,98735.22
2022-12-14T09:55:43.680Z,98727.94
2022-12-14T09:59:45.615Z,98729.50
2022-12-14T10:04:13.889Z,98698.03
2022-12-14T10:08:28.558Z,98704.06
2022-12-14T10:13:19.184Z,98703.84
2022-12-14T10:17:36.463Z,98685.41
2022-12-14T10:22:13.266Z,98698.00
2022-12-14T10:26:26.359Z,98690.53
2022-12-14T10:30:28.114Z,98677.50
2022-12-14T10:34:30.843Z,98681.38
2022-12-14T10:38:53.175Z,98659.13
2022-12-14T10:43:51.959Z,98662.41
2022-12-14T10:48:21.889Z,98664.88
2022-12-14T10:52:26.640Z,98660.72
2022-12-14T10:56:31.634Z,98653.28
2022-12-14T11:00:33.630Z,98642.13
2022-12-14T11:04:56.673Z,98627.75
2022-12-14T11:08:59.753Z,98634.66
2022-12-14T11:13:06.548Z,98627.41
2022-12-14T11:17:44.390Z,98627.09
2022-12-14T11:21:49.911Z,98637.47
2022-12-14T11:26:01.388Z,98607.47
2022-12-14T11:30:03.440Z,98600.72
2022-12-14T11:34:07.273Z,98607.19
2022-12-14T11:38:12.265Z,98607.91
2022-12-14T11:42:17.744Z,98614.78
2022-12-14T11:46:20.692Z,98597.28
2022-12-14T11:50:23.976Z,98588.47
2022-12-14T11:54:25.962Z,98585.09
2022-12-14T11:58:32.157Z,98586.53
2022-12-14T12:02:39.952Z,98587.34
2022-12-14T12:06:41.805Z,98581.38
2022-12-14T12:10:50.133Z,98576.31
2022-12-14T12:14:55.569Z,98581.56
2022-12-14T12:19:12.884Z,98576.78
2022-12-14T12:23:19.453Z,98564.31
2022-12-14T12:27:21.507Z,98560.88
2022-12-14T12:31:28.377Z,98550.38
2022-12-14T12:35:53.984Z,98549.72
2022-12-14T12:40:21.623Z,98543.00
2022-12-14T12:44:37.260Z,98544.44
2022-12-14T12:48:46.450Z,98549.41
2022-12-14T12:53:12.714Z,98548.19
2022-12-14T12:57:14.494Z,98555.06
2022-12-14T13:01:32.909Z,98539.22
2022-12-14T13:05:50.658Z,98552.38
2022-12-14T13:10:27.475Z,98540.44
2022-12-14T13:14:38.672Z,98535.97
2022-12-14T13:19:01.916Z,98539.75
2022-12-14T13:23:36.468Z,98530.75
2022-12-14T13:27:40.832Z,98536.25
2022-12-14T13:31:56.444Z,98506.75
2022-12-14T13:36:36.525Z,98516.25
2022-12-14T13:40:44.204Z,98522.63
2022-12-14T13:44:59.983Z,98517.56
2022-12-14T13:49:05.640Z,98493.09
2022-12-14T13:53:21.930Z,98503.88
2022-12-14T13:57:24.274Z,98502.31
2022-12-14T14:01:47.828Z,98499.38
2022-12-14T14:05:53.329Z,98483.50
2022-12-14T14:10:03.624Z,98488.38
2022-12-14T14:14:47.852Z,98495.66
2022-12-14T14:19:23.840Z,98494.91
2022-12-14T14:23:32.096Z,98493.78
2022-12-14T14:27:39.609Z,98489.31
2022-12-14T14:32:04.928Z,98497.50
2022-12-14T14:36:36.070Z,98492.69
2022-12-14T14:41:13.945Z,98503.47
2022-12-14T14:45:05.745Z,98510.09
2022-12-14T14:49:30.684Z,98508.44
2022-12-14T14:53:37.362Z,98505.94
2022-12-14T14:58:04.249Z,98518.25
2022-12-14T15:02:45.745Z,98506.81
2022-12-14T15:07:04.908Z,98509.63
2022-12-14T15:11:18.028Z,98509.03
2022-12-14T15:15:45.480Z,98496.38
2022-12-14T15:19:48.799Z,98494.97
2022-12-14T15:23:52.738Z,98496.88
2022-12-14T15:27:55.620Z,98494.91
2022-12-14T15:31:59.741Z,98474.41
2022-12-14T15:36:15.798Z,98488.75
2022-12-14T15:40:23.370Z,98484.78
2022-12-14T15:44:25.428Z,98479.50
2022-12-14T15:48:31.301Z,98474.19
2022-12-14T15:52:35.684Z,98476.34
2022-12-14T15:56:43.838Z,98467.38
2022-12-14T16:00:51.998Z,98474.31
2022-12-14T16:04:54.191Z,98479.78
2022-12-14T16:09:12.114Z,98479.25
2022-12-14T16:13:29.265Z,98463.38
2022-12-14T16:17:34.179Z,98483.75
2022-12-14T16:21:38.750Z,98481.09
2022-12-14T16:25:59.516Z,98480.28
2022-12-14T16:30:29.987Z,98492.69
2022-12-14T16:34:33.435Z,98502.00
2022-12-14T16:38:57.209Z,98497.03
2022-12-14T16:42:59.309Z,98500.72
2022-12-14T16:47:01.083Z,98506.41
2022-12-14T16:51:50.971Z,98515.88
2022-12-14T16:56:15.821Z,98497.00
2022-12-14T17:00:27.235Z,98497.59
2022-12-14T17:04:35.779Z,98494.63
2022-12-14T17:08:38.048Z,98494.81
2022-12-14T17:12:40.009Z,98511.34
2022-12-14T17:16:42.515Z,98501.09
2022-12-14T17:20:44.579Z,98496.47
2022-12-14T17:24:46.454Z,98501.31
2022-12-14T17:28:49.964Z,98496.41
2022-12-14T17:32:55.623Z,98508.25
2022-12-14T17:36:57.385Z,98504.03
2022-12-14T17:40:59.203Z,98510.84
2022-12-14T17:45:01.092Z,98507.53
2022-12-14T17:49:06.402Z,98519.31
2022-12-14T17:53:15.953Z,98517.50
2022-12-14T17:57:22.971Z,98518.69
2022-12-14T18:01:25.579Z,98528.19
2022-12-14T18:05:29.140Z,98521.53
2022-12-14T18:09:31.095Z,98527.34
2022-12-14T18:13:33.803Z,98523.03
2022-12-14T18:17:36.016Z,98531.09
2022-12-14T18:21:37.755Z,98533.53
2022-12-14T18:25:43.800Z,98531.34
2022-12-14T18:29:49.667Z,98544.53
2022-12-14T18:33:51.858Z,98537.44
2022-12-14T18:37:53.688Z,98539.31
2022-12-14T18:41:55.477Z,98554.25
2022-12-14T18:45:57.483Z,98545.16
2022-12-14T18:49:59.613Z,98549.97
2022-12-14T18:54:02.405Z,98547.50
2022-12-14T18:58:04.271Z,98556.25
2022-12-14T19:02:08.473Z,98562.03
2022-12-14T19:10:46.262Z,98572.53
2022-12-14T19:14:51.319Z,98573.97
2022-12-14T19:18:53.218Z,98567.41
2022-12-14T19:22:55.244Z,98593.56
2022-12-14T19:26:57.114Z,98580.28
2022-12-14T19:30:59.131Z,98586.13
2022-12-14T19:35:01.257Z,98598.50
2022-12-14T19:39:03.206Z,98607.81
2022-12-14T19:43:05.503Z,98612.03
2022-12-14T19:47:07.561Z,98592.19
2022-12-14T19:51:11.943Z,98598.84
2022-12-14T19:55:13.952Z,98597.47
2022-12-14T19:59:15.830Z,98595.41
2022-12-14T20:03:18.230Z,98603.44
2022-12-14T20:07:22.708Z,98612.75
2022-12-14T20:11:25.363Z,98608.75
2022-12-14T20:15:30.727Z,98612.59
2022-12-14T20:19:39.197Z,98611.34
2022-12-14T20:23:41.120Z,98598.91
2022-12-14T20:27:42.993Z,98618.88
2022-12-14T20:31:44.982Z,98612.94
2022-12-14T20:35:51.534Z,98611.13
2022-12-14T20:39:53.460Z,98619.19
2022-12-14T20:43:55.485Z,98624.38
2022-12-14T20:47:57.417Z,98622.72
2022-12-14T20:51:59.265Z,98630.91
2022-12-14T20:56:04.353Z,98646.53
2022-12-14T21:00:07.090Z,98640.88
2022-12-14T21:04:09.496Z,98651.47
2022-12-14T21:08:11.309Z,98641.72
2022-12-14T21:12:22.411Z,98646.16
2022-12-14T21:16:24.221Z,98650.44
2022-12-14T21:20:26.098Z,98659.69
2022-12-14T21:25:00.882Z,98654.16
2022-12-14T21:28:59.237Z,98654.63
2022-12-14T21:33:00.980Z,98653.25
2022-12-14T21:37:02.813Z,98653.88
2022-12-14T21:41:24.458Z,98673.63
2022-12-14T21:45:26.395Z,98668.28
2022-12-14T21:49:28.262Z,98677.06
2022-12-14T21:53:34.947Z,98678.47
2022-12-14T21:57:56.232Z,98677.84
2022-12-14T22:02:00.093Z,98688.47
2022-12-14T22:06:02.097Z,98694.28
2022-12-14T22:10:04.458Z,98704.41
2022-12-14T22:14:06.384Z,98709.84
2022-12-14T22:18:08.182Z,98715.75
2022-12-14T22:22:16.852Z,98708.56
2022-12-14T22:26:19.225Z,98703.00
2022-12-14T22:30:21.153Z,98706.75
2022-12-14T22:34:23.485Z,98710.97
2022-12-14T22:38:26.185Z,98711.16
2022-12-14T22:42:27.953Z,98716.38
2022-12-14T22:46:29.963Z,98725.56
2022-12-14T22:50:33.081Z,98725.03
2022-12-14T22:54:34.977Z,98727.03
2022-12-14T22:58:37.051Z,98734.88
2022-12-14T23:02:39.229Z,98735.41
2022-12-14T23:06:41.150Z,98735.88
2022-12-14T23:11:01.792Z,98728.47
2022-12-14T23:15:22.496Z,98737.16
2022-12-14T23:19:43.168Z,98741.25
2022-12-14T23:24:04.386Z,98743.44
2022-12-14T23:28:24.689Z,98741.06
2022-12-14T23:32:48.328Z,98738.69
2022-12-14T23:37:08.960Z,98729.19
2022-12-14T23:41:29.610Z,98732.13
2022-12-14T23:45:50.004Z,98728.09
2022-12-14T23:50:10.217Z,98730.63
2022-12-14T23:54:30.559Z,98740.16
2022-12-14T23:58:50.877Z,98729.13
